sensor_id;sensor_type;location;lat;lon;timestamp;P1;durP1;ratioP1;P2;durP2;ratioP2
51852;SDS011;37894;53.172;6.598;2023-04-24T00:01:31;13.07;;;8.45;;
51852;SDS011;37894;53.172;6.598;2023-04-24T00:03:59;15.52;;;9.63;;
51852;SDS011;37894;53.172;6.598;2023-04-24T00:06:25;14.05;;;9.30;;
51852;SDS011;37894;53.172;6.598;2023-04-24T00:08:58;11.98;;;8.23;;
51852;SDS011;37894;53.172;6.598;2023-04-24T00:11:25;12.45;;;8.85;;
51852;SDS011;37894;53.172;6.598;2023-04-24T00:13:51;10.50;;;7.47;;
51852;SDS011;37894;53.172;6.598;2023-04-24T00:16:18;11.32;;;6.82;;
51852;SDS011;37894;53.172;6.598;2023-04-24T00:18:44;10.60;;;7.05;;
51852;SDS011;37894;53.172;6.598;2023-04-24T00:21:10;8.02;;;5.55;;
51852;SDS011;37894;53.172;6.598;2023-04-24T00:23:36;6.63;;;4.13;;
51852;SDS011;37894;53.172;6.598;2023-04-24T00:26:02;5.38;;;3.47;;
51852;SDS011;37894;53.172;6.598;2023-04-24T00:28:27;9.82;;;4.13;;
51852;SDS011;37894;53.172;6.598;2023-04-24T00:30:53;4.20;;;2.85;;
51852;SDS011;37894;53.172;6.598;2023-04-24T00:33:19;3.85;;;2.30;;
51852;SDS011;37894;53.172;6.598;2023-04-24T00:35:45;3.22;;;2.05;;
51852;SDS011;37894;53.172;6.598;2023-04-24T00:38:11;4.45;;;2.22;;
51852;SDS011;37894;53.172;6.598;2023-04-24T00:40:37;3.80;;;2.20;;
51852;SDS011;37894;53.172;6.598;2023-04-24T00:43:03;4.38;;;2.38;;
51852;SDS011;37894;53.172;6.598;2023-04-24T00:45:28;2.90;;;1.85;;
51852;SDS011;37894;53.172;6.598;2023-04-24T00:47:56;3.00;;;1.75;;
51852;SDS011;37894;53.172;6.598;2023-04-24T00:50:23;2.95;;;1.75;;
51852;SDS011;37894;53.172;6.598;2023-04-24T00:52:49;4.68;;;2.10;;
51852;SDS011;37894;53.172;6.598;2023-04-24T00:55:15;3.08;;;1.75;;
51852;SDS011;37894;53.172;6.598;2023-04-24T00:57:41;2.70;;;1.70;;
51852;SDS011;37894;53.172;6.598;2023-04-24T01:00:09;3.75;;;1.70;;
51852;SDS011;37894;53.172;6.598;2023-04-24T01:02:39;3.83;;;1.85;;
51852;SDS011;37894;53.172;6.598;2023-04-24T01:05:08;3.60;;;1.88;;
51852;SDS011;37894;53.172;6.598;2023-04-24T01:07:34;4.15;;;2.08;;
51852;SDS011;37894;53.172;6.598;2023-04-24T01:10:02;3.58;;;2.17;;
51852;SDS011;37894;53.172;6.598;2023-04-24T01:12:28;2.67;;;1.80;;
51852;SDS011;37894;53.172;6.598;2023-04-24T01:14:54;2.67;;;1.52;;
51852;SDS011;37894;53.172;6.598;2023-04-24T01:17:21;3.83;;;2.05;;
51852;SDS011;37894;53.172;6.598;2023-04-24T01:19:47;4.28;;;1.88;;
51852;SDS011;37894;53.172;6.598;2023-04-24T01:22:14;3.00;;;1.90;;
51852;SDS011;37894;53.172;6.598;2023-04-24T01:24:40;2.92;;;1.90;;
51852;SDS011;37894;53.172;6.598;2023-04-24T01:27:07;3.47;;;2.22;;
51852;SDS011;37894;53.172;6.598;2023-04-24T01:29:34;3.38;;;2.20;;
51852;SDS011;37894;53.172;6.598;2023-04-24T01:32:00;4.30;;;1.95;;
51852;SDS011;37894;53.172;6.598;2023-04-24T01:34:26;3.10;;;2.10;;
51852;SDS011;37894;53.172;6.598;2023-04-24T01:36:51;3.92;;;2.60;;
51852;SDS011;37894;53.172;6.598;2023-04-24T01:39:17;3.85;;;2.50;;
51852;SDS011;37894;53.172;6.598;2023-04-24T01:41:45;5.80;;;2.53;;
51852;SDS011;37894;53.172;6.598;2023-04-24T01:44:11;7.88;;;2.45;;
51852;SDS011;37894;53.172;6.598;2023-04-24T01:46:37;3.97;;;2.45;;
51852;SDS011;37894;53.172;6.598;2023-04-24T01:49:03;3.63;;;2.80;;
51852;SDS011;37894;53.172;6.598;2023-04-24T01:51:29;4.30;;;2.85;;
51852;SDS011;37894;53.172;6.598;2023-04-24T01:53:55;5.35;;;2.67;;
51852;SDS011;37894;53.172;6.598;2023-04-24T01:56:21;4.03;;;2.95;;
51852;SDS011;37894;53.172;6.598;2023-04-24T01:58:48;4.63;;;3.33;;
51852;SDS011;37894;53.172;6.598;2023-04-24T02:01:19;5.15;;;3.35;;
51852;SDS011;37894;53.172;6.598;2023-04-24T02:03:45;5.65;;;3.55;;
51852;SDS011;37894;53.172;6.598;2023-04-24T02:06:11;4.68;;;3.65;;
51852;SDS011;37894;53.172;6.598;2023-04-24T02:08:36;5.97;;;3.88;;
51852;SDS011;37894;53.172;6.598;2023-04-24T02:11:03;6.82;;;4.15;;
51852;SDS011;37894;53.172;6.598;2023-04-24T02:13:29;6.38;;;4.28;;
51852;SDS011;37894;53.172;6.598;2023-04-24T02:15:55;6.70;;;4.07;;
51852;SDS011;37894;53.172;6.598;2023-04-24T02:18:20;6.07;;;4.35;;
51852;SDS011;37894;53.172;6.598;2023-04-24T02:20:47;6.88;;;4.88;;
51852;SDS011;37894;53.172;6.598;2023-04-24T02:23:13;6.07;;;4.53;;
51852;SDS011;37894;53.172;6.598;2023-04-24T02:25:39;6.40;;;4.78;;
51852;SDS011;37894;53.172;6.598;2023-04-24T02:28:05;7.25;;;5.35;;
51852;SDS011;37894;53.172;6.598;2023-04-24T02:30:31;7.97;;;5.70;;
51852;SDS011;37894;53.172;6.598;2023-04-24T02:32:57;9.48;;;5.65;;
51852;SDS011;37894;53.172;6.598;2023-04-24T02:35:22;7.88;;;5.85;;
51852;SDS011;37894;53.172;6.598;2023-04-24T02:37:48;9.35;;;6.28;;
51852;SDS011;37894;53.172;6.598;2023-04-24T02:40:14;9.50;;;5.95;;
51852;SDS011;37894;53.172;6.598;2023-04-24T02:42:40;10.18;;;6.47;;
51852;SDS011;37894;53.172;6.598;2023-04-24T02:45:05;9.65;;;6.47;;
51852;SDS011;37894;53.172;6.598;2023-04-24T02:47:32;8.93;;;6.47;;
51852;SDS011;37894;53.172;6.598;2023-04-24T02:49:58;10.30;;;6.95;;
51852;SDS011;37894;53.172;6.598;2023-04-24T02:52:24;8.65;;;6.00;;
51852;SDS011;37894;53.172;6.598;2023-04-24T02:54:49;10.48;;;6.80;;
51852;SDS011;37894;53.172;6.598;2023-04-24T02:57:15;10.50;;;7.55;;
51852;SDS011;37894;53.172;6.598;2023-04-24T02:59:41;11.70;;;7.50;;
51852;SDS011;37894;53.172;6.598;2023-04-24T03:02:07;12.07;;;7.40;;
51852;SDS011;37894;53.172;6.598;2023-04-24T03:04:33;10.90;;;7.75;;
51852;SDS011;37894;53.172;6.598;2023-04-24T03:06:59;10.82;;;7.40;;
51852;SDS011;37894;53.172;6.598;2023-04-24T03:09:26;11.55;;;7.22;;
51852;SDS011;37894;53.172;6.598;2023-04-24T03:11:51;10.45;;;7.20;;
51852;SDS011;37894;53.172;6.598;2023-04-24T03:14:17;11.75;;;7.70;;
51852;SDS011;37894;53.172;6.598;2023-04-24T03:16:43;10.77;;;7.22;;
51852;SDS011;37894;53.172;6.598;2023-04-24T03:19:09;11.60;;;8.38;;
51852;SDS011;37894;53.172;6.598;2023-04-24T03:21:35;12.40;;;8.18;;
51852;SDS011;37894;53.172;6.598;2023-04-24T03:24:05;13.38;;;9.27;;
51852;SDS011;37894;53.172;6.598;2023-04-24T03:26:34;15.77;;;9.98;;
51852;SDS011;37894;53.172;6.598;2023-04-24T03:29:00;14.98;;;10.77;;
51852;SDS011;37894;53.172;6.598;2023-04-24T03:31:26;16.38;;;11.32;;
51852;SDS011;37894;53.172;6.598;2023-04-24T03:33:52;16.30;;;10.38;;
51852;SDS011;37894;53.172;6.598;2023-04-24T03:36:18;18.02;;;12.75;;
51852;SDS011;37894;53.172;6.598;2023-04-24T03:38:44;16.60;;;11.32;;
51852;SDS011;37894;53.172;6.598;2023-04-24T03:41:10;18.60;;;12.70;;
51852;SDS011;37894;53.172;6.598;2023-04-24T03:43:36;18.98;;;13.45;;
51852;SDS011;37894;53.172;6.598;2023-04-24T03:46:03;16.60;;;12.73;;
51852;SDS011;37894;53.172;6.598;2023-04-24T03:48:29;17.40;;;12.90;;
51852;SDS011;37894;53.172;6.598;2023-04-24T03:50:55;15.63;;;12.63;;
51852;SDS011;37894;53.172;6.598;2023-04-24T03:53:21;19.75;;;13.38;;
51852;SDS011;37894;53.172;6.598;2023-04-24T03:55:46;19.13;;;13.98;;
51852;SDS011;37894;53.172;6.598;2023-04-24T03:58:12;14.88;;;11.90;;
51852;SDS011;37894;53.172;6.598;2023-04-24T04:00:41;16.67;;;12.18;;
51852;SDS011;37894;53.172;6.598;2023-04-24T04:03:07;15.73;;;11.85;;
51852;SDS011;37894;53.172;6.598;2023-04-24T04:05:33;13.73;;;11.18;;
51852;SDS011;37894;53.172;6.598;2023-04-24T04:07:58;14.57;;;11.13;;
51852;SDS011;37894;53.172;6.598;2023-04-24T04:10:24;15.00;;;11.43;;
51852;SDS011;37894;53.172;6.598;2023-04-24T04:12:50;25.42;;;12.80;;
51852;SDS011;37894;53.172;6.598;2023-04-24T04:15:15;13.63;;;11.55;;
51852;SDS011;37894;53.172;6.598;2023-04-24T04:17:41;15.02;;;12.00;;
51852;SDS011;37894;53.172;6.598;2023-04-24T04:20:07;13.27;;;10.35;;
51852;SDS011;37894;53.172;6.598;2023-04-24T04:22:35;15.68;;;11.25;;
51852;SDS011;37894;53.172;6.598;2023-04-24T04:25:01;13.43;;;10.95;;
51852;SDS011;37894;53.172;6.598;2023-04-24T04:27:28;13.88;;;10.52;;
51852;SDS011;37894;53.172;6.598;2023-04-24T04:29:57;11.98;;;8.90;;
51852;SDS011;37894;53.172;6.598;2023-04-24T04:32:26;13.18;;;9.40;;
51852;SDS011;37894;53.172;6.598;2023-04-24T04:34:52;13.10;;;10.25;;
51852;SDS011;37894;53.172;6.598;2023-04-24T04:37:18;12.95;;;9.80;;
51852;SDS011;37894;53.172;6.598;2023-04-24T04:39:44;13.25;;;9.30;;
51852;SDS011;37894;53.172;6.598;2023-04-24T04:42:10;11.57;;;8.10;;
51852;SDS011;37894;53.172;6.598;2023-04-24T04:44:36;13.55;;;9.27;;
51852;SDS011;37894;53.172;6.598;2023-04-24T04:47:03;12.15;;;8.57;;
51852;SDS011;37894;53.172;6.598;2023-04-24T04:49:31;13.93;;;8.82;;
51852;SDS011;37894;53.172;6.598;2023-04-24T04:51:57;11.57;;;8.60;;
51852;SDS011;37894;53.172;6.598;2023-04-24T04:54:23;13.30;;;8.48;;
51852;SDS011;37894;53.172;6.598;2023-04-24T04:56:49;12.27;;;8.20;;
51852;SDS011;37894;53.172;6.598;2023-04-24T04:59:15;12.98;;;9.02;;
51852;SDS011;37894;53.172;6.598;2023-04-24T05:01:41;15.50;;;10.20;;
51852;SDS011;37894;53.172;6.598;2023-04-24T05:04:07;18.50;;;10.40;;
51852;SDS011;37894;53.172;6.598;2023-04-24T05:06:33;18.92;;;12.07;;
51852;SDS011;37894;53.172;6.598;2023-04-24T05:08:59;16.63;;;10.63;;
51852;SDS011;37894;53.172;6.598;2023-04-24T05:11:25;15.27;;;9.45;;
51852;SDS011;37894;53.172;6.598;2023-04-24T05:13:51;16.77;;;9.85;;
51852;SDS011;37894;53.172;6.598;2023-04-24T05:16:17;18.27;;;10.98;;
51852;SDS011;37894;53.172;6.598;2023-04-24T05:18:43;16.35;;;11.23;;
51852;SDS011;37894;53.172;6.598;2023-04-24T05:21:09;14.27;;;8.98;;
51852;SDS011;37894;53.172;6.598;2023-04-24T05:23:35;12.02;;;8.10;;
51852;SDS011;37894;53.172;6.598;2023-04-24T05:26:01;14.93;;;8.63;;
51852;SDS011;37894;53.172;6.598;2023-04-24T05:28:27;32.75;;;9.45;;
51852;SDS011;37894;53.172;6.598;2023-04-24T05:30:53;10.73;;;6.90;;
51852;SDS011;37894;53.172;6.598;2023-04-24T05:33:20;10.23;;;6.57;;
51852;SDS011;37894;53.172;6.598;2023-04-24T05:35:47;12.15;;;7.35;;
51852;SDS011;37894;53.172;6.598;2023-04-24T05:38:13;14.70;;;7.65;;
51852;SDS011;37894;53.172;6.598;2023-04-24T05:40:42;11.82;;;6.60;;
51852;SDS011;37894;53.172;6.598;2023-04-24T05:43:08;11.25;;;7.07;;
51852;SDS011;37894;53.172;6.598;2023-04-24T05:45:34;13.88;;;7.90;;
51852;SDS011;37894;53.172;6.598;2023-04-24T05:48:01;20.98;;;9.10;;
51852;SDS011;37894;53.172;6.598;2023-04-24T05:50:27;11.82;;;7.28;;
51852;SDS011;37894;53.172;6.598;2023-04-24T05:52:53;13.57;;;7.50;;
51852;SDS011;37894;53.172;6.598;2023-04-24T05:55:19;18.17;;;8.57;;
51852;SDS011;37894;53.172;6.598;2023-04-24T05:57:45;9.93;;;5.00;;
51852;SDS011;37894;53.172;6.598;2023-04-24T06:00:12;8.20;;;4.60;;
51852;SDS011;37894;53.172;6.598;2023-04-24T06:02:38;15.60;;;4.53;;
51852;SDS011;37894;53.172;6.598;2023-04-24T06:05:04;7.75;;;4.50;;
51852;SDS011;37894;53.172;6.598;2023-04-24T06:07:30;7.13;;;4.05;;
51852;SDS011;37894;53.172;6.598;2023-04-24T06:09:57;7.95;;;4.25;;
51852;SDS011;37894;53.172;6.598;2023-04-24T06:12:23;6.28;;;4.03;;
51852;SDS011;37894;53.172;6.598;2023-04-24T06:14:48;6.00;;;3.80;;
51852;SDS011;37894;53.172;6.598;2023-04-24T06:17:15;7.55;;;4.38;;
51852;SDS011;37894;53.172;6.598;2023-04-24T06:19:40;7.30;;;4.50;;
51852;SDS011;37894;53.172;6.598;2023-04-24T06:22:06;7.97;;;4.97;;
51852;SDS011;37894;53.172;6.598;2023-04-24T06:24:33;7.80;;;5.25;;
51852;SDS011;37894;53.172;6.598;2023-04-24T06:26:59;7.65;;;4.78;;
51852;SDS011;37894;53.172;6.598;2023-04-24T06:29:26;8.55;;;5.63;;
51852;SDS011;37894;53.172;6.598;2023-04-24T06:31:52;8.70;;;5.47;;
51852;SDS011;37894;53.172;6.598;2023-04-24T06:34:18;10.18;;;5.78;;
51852;SDS011;37894;53.172;6.598;2023-04-24T06:36:44;10.27;;;6.05;;
51852;SDS011;37894;53.172;6.598;2023-04-24T06:39:09;13.52;;;6.88;;
51852;SDS011;37894;53.172;6.598;2023-04-24T06:41:35;13.45;;;8.25;;
51852;SDS011;37894;53.172;6.598;2023-04-24T06:44:01;16.27;;;8.18;;
51852;SDS011;37894;53.172;6.598;2023-04-24T06:46:27;16.40;;;7.55;;
51852;SDS011;37894;53.172;6.598;2023-04-24T06:48:53;11.68;;;7.93;;
51852;SDS011;37894;53.172;6.598;2023-04-24T06:51:24;15.60;;;7.93;;
51852;SDS011;37894;53.172;6.598;2023-04-24T06:53:52;13.48;;;7.57;;
51852;SDS011;37894;53.172;6.598;2023-04-24T06:56:18;14.45;;;7.78;;
51852;SDS011;37894;53.172;6.598;2023-04-24T06:58:44;12.20;;;8.18;;
51852;SDS011;37894;53.172;6.598;2023-04-24T07:01:10;14.60;;;7.63;;
51852;SDS011;37894;53.172;6.598;2023-04-24T07:03:36;12.52;;;6.95;;
51852;SDS011;37894;53.172;6.598;2023-04-24T07:06:04;13.55;;;6.47;;
51852;SDS011;37894;53.172;6.598;2023-04-24T07:08:30;7.80;;;5.03;;
51852;SDS011;37894;53.172;6.598;2023-04-24T07:10:56;9.85;;;4.50;;
51852;SDS011;37894;53.172;6.598;2023-04-24T07:13:22;8.15;;;4.35;;
51852;SDS011;37894;53.172;6.598;2023-04-24T07:15:48;7.70;;;4.10;;
51852;SDS011;37894;53.172;6.598;2023-04-24T07:18:19;6.10;;;2.97;;
51852;SDS011;37894;53.172;6.598;2023-04-24T07:20:45;6.38;;;3.50;;
51852;SDS011;37894;53.172;6.598;2023-04-24T07:23:11;4.47;;;2.83;;
51852;SDS011;37894;53.172;6.598;2023-04-24T07:25:37;5.07;;;2.80;;
51852;SDS011;37894;53.172;6.598;2023-04-24T07:28:03;4.57;;;3.03;;
51852;SDS011;37894;53.172;6.598;2023-04-24T07:30:30;4.82;;;2.80;;
51852;SDS011;37894;53.172;6.598;2023-04-24T07:32:57;5.45;;;2.88;;
51852;SDS011;37894;53.172;6.598;2023-04-24T07:35:24;9.02;;;3.22;;
51852;SDS011;37894;53.172;6.598;2023-04-24T07:37:51;7.53;;;2.80;;
51852;SDS011;37894;53.172;6.598;2023-04-24T07:40:20;5.88;;;2.95;;
51852;SDS011;37894;53.172;6.598;2023-04-24T07:42:46;7.18;;;3.30;;
51852;SDS011;37894;53.172;6.598;2023-04-24T07:45:13;7.05;;;3.58;;
51852;SDS011;37894;53.172;6.598;2023-04-24T07:47:43;7.47;;;3.47;;
51852;SDS011;37894;53.172;6.598;2023-04-24T07:50:11;5.20;;;3.50;;
51852;SDS011;37894;53.172;6.598;2023-04-24T07:52:38;7.72;;;3.85;;
51852;SDS011;37894;53.172;6.598;2023-04-24T07:55:04;7.30;;;3.45;;
51852;SDS011;37894;53.172;6.598;2023-04-24T07:57:30;7.03;;;4.03;;
51852;SDS011;37894;53.172;6.598;2023-04-24T07:59:56;10.18;;;3.75;;
51852;SDS011;37894;53.172;6.598;2023-04-24T08:02:22;9.45;;;3.75;;
51852;SDS011;37894;53.172;6.598;2023-04-24T08:04:52;7.70;;;3.70;;
51852;SDS011;37894;53.172;6.598;2023-04-24T08:07:19;12.68;;;4.47;;
51852;SDS011;37894;53.172;6.598;2023-04-24T08:09:45;12.55;;;5.38;;
51852;SDS011;37894;53.172;6.598;2023-04-24T08:12:11;12.88;;;5.38;;
51852;SDS011;37894;53.172;6.598;2023-04-24T08:14:37;16.42;;;6.72;;
51852;SDS011;37894;53.172;6.598;2023-04-24T08:17:03;12.10;;;7.35;;
51852;SDS011;37894;53.172;6.598;2023-04-24T08:19:29;16.85;;;8.93;;
51852;SDS011;37894;53.172;6.598;2023-04-24T08:21:55;18.13;;;9.38;;
51852;SDS011;37894;53.172;6.598;2023-04-24T08:24:20;17.55;;;9.57;;
51852;SDS011;37894;53.172;6.598;2023-04-24T08:26:46;21.80;;;10.90;;
51852;SDS011;37894;53.172;6.598;2023-04-24T08:29:15;22.83;;;11.90;;
51852;SDS011;37894;53.172;6.598;2023-04-24T08:31:41;26.55;;;12.02;;
51852;SDS011;37894;53.172;6.598;2023-04-24T08:34:07;25.05;;;12.05;;
51852;SDS011;37894;53.172;6.598;2023-04-24T08:36:32;27.15;;;12.98;;
51852;SDS011;37894;53.172;6.598;2023-04-24T08:38:58;25.30;;;13.00;;
51852;SDS011;37894;53.172;6.598;2023-04-24T08:41:24;25.90;;;13.02;;
51852;SDS011;37894;53.172;6.598;2023-04-24T08:43:51;25.60;;;12.27;;
51852;SDS011;37894;53.172;6.598;2023-04-24T08:46:16;27.23;;;13.52;;
51852;SDS011;37894;53.172;6.598;2023-04-24T08:48:44;20.77;;;12.55;;
51852;SDS011;37894;53.172;6.598;2023-04-24T08:51:10;22.70;;;11.93;;
51852;SDS011;37894;53.172;6.598;2023-04-24T08:53:37;22.23;;;11.98;;
51852;SDS011;37894;53.172;6.598;2023-04-24T08:56:03;24.30;;;11.35;;
51852;SDS011;37894;53.172;6.598;2023-04-24T08:58:32;27.33;;;11.48;;
51852;SDS011;37894;53.172;6.598;2023-04-24T09:00:58;25.48;;;11.13;;
51852;SDS011;37894;53.172;6.598;2023-04-24T09:03:27;24.45;;;13.32;;
51852;SDS011;37894;53.172;6.598;2023-04-24T09:05:53;23.67;;;11.85;;
51852;SDS011;37894;53.172;6.598;2023-04-24T09:08:23;21.88;;;11.30;;
51852;SDS011;37894;53.172;6.598;2023-04-24T14:19:22;6.00;;;1.90;;
51852;SDS011;37894;53.172;6.598;2023-04-24T14:21:47;6.82;;;2.10;;
51852;SDS011;37894;53.172;6.598;2023-04-24T14:24:14;9.35;;;2.42;;
51852;SDS011;37894;53.172;6.598;2023-04-24T14:26:40;7.05;;;2.20;;
51852;SDS011;37894;53.172;6.598;2023-04-24T14:29:06;5.63;;;2.10;;
51852;SDS011;37894;53.172;6.598;2023-04-24T14:31:32;9.60;;;2.10;;
51852;SDS011;37894;53.172;6.598;2023-04-24T14:33:58;9.23;;;2.45;;
51852;SDS011;37894;53.172;6.598;2023-04-24T14:36:24;9.23;;;2.53;;
51852;SDS011;37894;53.172;6.598;2023-04-24T14:38:50;12.73;;;2.65;;
51852;SDS011;37894;53.172;6.598;2023-04-24T14:41:16;6.93;;;2.60;;
51852;SDS011;37894;53.172;6.598;2023-04-24T14:43:42;9.57;;;2.50;;
51852;SDS011;37894;53.172;6.598;2023-04-24T14:46:08;10.02;;;2.40;;
51852;SDS011;37894;53.172;6.598;2023-04-24T14:48:33;8.55;;;2.58;;
51852;SDS011;37894;53.172;6.598;2023-04-24T14:51:00;12.48;;;3.28;;
51852;SDS011;37894;53.172;6.598;2023-04-24T14:53:26;7.13;;;2.67;;
51852;SDS011;37894;53.172;6.598;2023-04-24T14:55:52;7.97;;;2.40;;
51852;SDS011;37894;53.172;6.598;2023-04-24T14:58:18;8.82;;;2.65;;
51852;SDS011;37894;53.172;6.598;2023-04-24T15:00:45;11.52;;;3.00;;
51852;SDS011;37894;53.172;6.598;2023-04-24T15:03:10;6.85;;;2.70;;
51852;SDS011;37894;53.172;6.598;2023-04-24T15:05:36;6.90;;;2.38;;
51852;SDS011;37894;53.172;6.598;2023-04-24T15:08:02;10.77;;;2.50;;
51852;SDS011;37894;53.172;6.598;2023-04-24T15:10:28;9.02;;;2.67;;
51852;SDS011;37894;53.172;6.598;2023-04-24T15:12:54;7.05;;;2.78;;
51852;SDS011;37894;53.172;6.598;2023-04-24T15:15:21;12.48;;;2.95;;
51852;SDS011;37894;53.172;6.598;2023-04-24T15:17:47;7.85;;;3.38;;
51852;SDS011;37894;53.172;6.598;2023-04-24T15:20:13;6.60;;;2.67;;
51852;SDS011;37894;53.172;6.598;2023-04-24T15:22:39;10.00;;;3.03;;
51852;SDS011;37894;53.172;6.598;2023-04-24T15:25:05;12.27;;;4.20;;
51852;SDS011;37894;53.172;6.598;2023-04-24T15:27:41;13.00;;;2.85;;
51852;SDS011;37894;53.172;6.598;2023-04-24T15:30:08;12.35;;;3.35;;
51852;SDS011;37894;53.172;6.598;2023-04-24T15:32:35;13.82;;;3.17;;
51852;SDS011;37894;53.172;6.598;2023-04-24T15:35:01;9.63;;;2.95;;
51852;SDS011;37894;53.172;6.598;2023-04-24T15:37:27;9.13;;;2.88;;
51852;SDS011;37894;53.172;6.598;2023-04-24T15:39:53;10.45;;;3.33;;
51852;SDS011;37894;53.172;6.598;2023-04-24T15:42:20;12.20;;;3.13;;
51852;SDS011;37894;53.172;6.598;2023-04-24T15:44:45;15.25;;;3.90;;
51852;SDS011;37894;53.172;6.598;2023-04-24T15:47:11;11.20;;;3.00;;
51852;SDS011;37894;53.172;6.598;2023-04-24T15:49:39;13.13;;;3.25;;
51852;SDS011;37894;53.172;6.598;2023-04-24T15:52:05;11.45;;;3.90;;
51852;SDS011;37894;53.172;6.598;2023-04-24T15:54:31;18.52;;;4.15;;
51852;SDS011;37894;53.172;6.598;2023-04-24T15:56:57;12.20;;;3.92;;
51852;SDS011;37894;53.172;6.598;2023-04-24T15:59:24;10.25;;;3.33;;
51852;SDS011;37894;53.172;6.598;2023-04-24T16:01:50;13.95;;;3.30;;
51852;SDS011;37894;53.172;6.598;2023-04-24T16:04:16;15.45;;;4.35;;
51852;SDS011;37894;53.172;6.598;2023-04-24T16:06:42;12.32;;;3.67;;
51852;SDS011;37894;53.172;6.598;2023-04-24T16:09:08;11.30;;;3.78;;
51852;SDS011;37894;53.172;6.598;2023-04-24T16:11:34;12.80;;;4.13;;
51852;SDS011;37894;53.172;6.598;2023-04-24T16:14:03;11.68;;;4.25;;
51852;SDS011;37894;53.172;6.598;2023-04-24T16:16:29;10.98;;;4.20;;
51852;SDS011;37894;53.172;6.598;2023-04-24T16:18:56;11.13;;;4.57;;
51852;SDS011;37894;53.172;6.598;2023-04-24T16:21:24;15.68;;;3.88;;
51852;SDS011;37894;53.172;6.598;2023-04-24T16:23:50;13.40;;;3.80;;
51852;SDS011;37894;53.172;6.598;2023-04-24T16:26:16;11.25;;;3.97;;
51852;SDS011;37894;53.172;6.598;2023-04-24T16:28:42;18.08;;;5.22;;
51852;SDS011;37894;53.172;6.598;2023-04-24T16:31:08;13.82;;;4.30;;
51852;SDS011;37894;53.172;6.598;2023-04-24T16:33:34;10.48;;;4.40;;
51852;SDS011;37894;53.172;6.598;2023-04-24T16:36:00;10.93;;;4.53;;
51852;SDS011;37894;53.172;6.598;2023-04-24T16:38:26;9.88;;;4.30;;
51852;SDS011;37894;53.172;6.598;2023-04-24T16:40:52;8.75;;;4.25;;
51852;SDS011;37894;53.172;6.598;2023-04-24T16:43:18;13.10;;;4.13;;
51852;SDS011;37894;53.172;6.598;2023-04-24T16:45:44;14.10;;;4.25;;
51852;SDS011;37894;53.172;6.598;2023-04-24T16:48:10;7.93;;;3.53;;
51852;SDS011;37894;53.172;6.598;2023-04-24T16:50:36;9.90;;;3.65;;
51852;SDS011;37894;53.172;6.598;2023-04-24T16:53:03;9.50;;;4.00;;
51852;SDS011;37894;53.172;6.598;2023-04-24T16:55:29;8.27;;;4.00;;
51852;SDS011;37894;53.172;6.598;2023-04-24T16:57:55;9.05;;;5.05;;
51852;SDS011;37894;53.172;6.598;2023-04-24T17:00:21;8.02;;;3.45;;
51852;SDS011;37894;53.172;6.598;2023-04-24T17:02:47;10.35;;;3.80;;
51852;SDS011;37894;53.172;6.598;2023-04-24T17:05:14;12.68;;;4.47;;
51852;SDS011;37894;53.172;6.598;2023-04-24T17:07:40;11.52;;;3.85;;
51852;SDS011;37894;53.172;6.598;2023-04-24T17:10:06;9.55;;;3.40;;
51852;SDS011;37894;53.172;6.598;2023-04-24T17:12:33;6.55;;;3.35;;
51852;SDS011;37894;53.172;6.598;2023-04-24T17:14:59;12.95;;;3.28;;
51852;SDS011;37894;53.172;6.598;2023-04-24T17:17:25;8.90;;;3.22;;
51852;SDS011;37894;53.172;6.598;2023-04-24T17:19:51;12.95;;;3.45;;
51852;SDS011;37894;53.172;6.598;2023-04-24T17:22:17;9.70;;;3.10;;
51852;SDS011;37894;53.172;6.598;2023-04-24T17:24:43;6.03;;;2.38;;
51852;SDS011;37894;53.172;6.598;2023-04-24T17:27:09;6.38;;;2.72;;
51852;SDS011;37894;53.172;6.598;2023-04-24T17:29:35;7.22;;;2.42;;
51852;SDS011;37894;53.172;6.598;2023-04-24T17:32:01;6.15;;;2.33;;
51852;SDS011;37894;53.172;6.598;2023-04-24T17:34:27;5.45;;;2.65;;
51852;SDS011;37894;53.172;6.598;2023-04-24T17:36:53;6.63;;;2.28;;
51852;SDS011;37894;53.172;6.598;2023-04-24T17:39:19;5.68;;;2.30;;
51852;SDS011;37894;53.172;6.598;2023-04-24T17:41:45;7.18;;;2.40;;
51852;SDS011;37894;53.172;6.598;2023-04-24T17:44:11;4.65;;;2.40;;
51852;SDS011;37894;53.172;6.598;2023-04-24T17:46:36;6.13;;;2.05;;
51852;SDS011;37894;53.172;6.598;2023-04-24T17:49:03;5.10;;;2.20;;
51852;SDS011;37894;53.172;6.598;2023-04-24T17:51:28;4.13;;;2.10;;
51852;SDS011;37894;53.172;6.598;2023-04-24T17:53:54;5.63;;;2.10;;
51852;SDS011;37894;53.172;6.598;2023-04-24T17:56:20;4.90;;;2.00;;
51852;SDS011;37894;53.172;6.598;2023-04-24T17:58:47;7.28;;;3.10;;
51852;SDS011;37894;53.172;6.598;2023-04-24T18:01:13;6.13;;;1.90;;
51852;SDS011;37894;53.172;6.598;2023-04-24T18:03:39;5.53;;;2.13;;
51852;SDS011;37894;53.172;6.598;2023-04-24T18:06:04;6.10;;;2.20;;
51852;SDS011;37894;53.172;6.598;2023-04-24T18:08:30;6.38;;;2.80;;
51852;SDS011;37894;53.172;6.598;2023-04-24T18:10:56;4.90;;;2.38;;
51852;SDS011;37894;53.172;6.598;2023-04-24T18:13:22;3.97;;;2.30;;
51852;SDS011;37894;53.172;6.598;2023-04-24T18:15:48;7.53;;;2.50;;
51852;SDS011;37894;53.172;6.598;2023-04-24T18:18:14;7.57;;;3.17;;
51852;SDS011;37894;53.172;6.598;2023-04-24T18:20:42;5.55;;;2.45;;
51852;SDS011;37894;53.172;6.598;2023-04-24T18:23:08;8.05;;;2.60;;
51852;SDS011;37894;53.172;6.598;2023-04-24T18:25:34;9.60;;;2.45;;
51852;SDS011;37894;53.172;6.598;2023-04-24T18:28:00;10.63;;;2.58;;
51852;SDS011;37894;53.172;6.598;2023-04-24T18:30:26;8.75;;;2.78;;
51852;SDS011;37894;53.172;6.598;2023-04-24T18:32:55;9.48;;;2.90;;
51852;SDS011;37894;53.172;6.598;2023-04-24T18:35:21;7.53;;;2.67;;
51852;SDS011;37894;53.172;6.598;2023-04-24T18:37:47;6.10;;;2.80;;
51852;SDS011;37894;53.172;6.598;2023-04-24T18:40:13;12.18;;;3.20;;
51852;SDS011;37894;53.172;6.598;2023-04-24T18:42:39;11.98;;;6.60;;
51852;SDS011;37894;53.172;6.598;2023-04-24T18:45:06;9.98;;;5.22;;
51852;SDS011;37894;53.172;6.598;2023-04-24T18:47:32;5.85;;;3.28;;
51852;SDS011;37894;53.172;6.598;2023-04-24T18:49:58;8.32;;;3.53;;
51852;SDS011;37894;53.172;6.598;2023-04-24T18:52:24;7.68;;;3.67;;
51852;SDS011;37894;53.172;6.598;2023-04-24T18:54:53;10.85;;;3.90;;
51852;SDS011;37894;53.172;6.598;2023-04-24T18:57:20;9.40;;;3.85;;
51852;SDS011;37894;53.172;6.598;2023-04-24T18:59:45;9.65;;;3.85;;
51852;SDS011;37894;53.172;6.598;2023-04-24T19:02:11;10.52;;;3.47;;
51852;SDS011;37894;53.172;6.598;2023-04-24T19:04:37;7.30;;;3.38;;
51852;SDS011;37894;53.172;6.598;2023-04-24T19:07:03;7.95;;;3.38;;
51852;SDS011;37894;53.172;6.598;2023-04-24T19:09:29;10.10;;;4.18;;
51852;SDS011;37894;53.172;6.598;2023-04-24T19:11:55;5.88;;;3.13;;
51852;SDS011;37894;53.172;6.598;2023-04-24T19:14:21;9.73;;;4.13;;
51852;SDS011;37894;53.172;6.598;2023-04-24T19:16:47;10.60;;;3.97;;
51852;SDS011;37894;53.172;6.598;2023-04-24T19:19:13;9.80;;;3.97;;
51852;SDS011;37894;53.172;6.598;2023-04-24T19:21:39;7.90;;;4.43;;
51852;SDS011;37894;53.172;6.598;2023-04-24T19:24:05;10.35;;;4.40;;
51852;SDS011;37894;53.172;6.598;2023-04-24T19:26:33;10.70;;;4.35;;
51852;SDS011;37894;53.172;6.598;2023-04-24T19:29:00;11.65;;;4.28;;
51852;SDS011;37894;53.172;6.598;2023-04-24T19:31:26;13.07;;;6.05;;
51852;SDS011;37894;53.172;6.598;2023-04-24T19:33:52;14.80;;;4.97;;
51852;SDS011;37894;53.172;6.598;2023-04-24T19:36:18;11.95;;;4.60;;
51852;SDS011;37894;53.172;6.598;2023-04-24T19:38:45;14.70;;;5.32;;
51852;SDS011;37894;53.172;6.598;2023-04-24T19:41:11;13.25;;;5.22;;